Time;durP1;ratioP1;P1;durP2;ratioP2;P2;SDS_P1;SDS_P2;PMS_P1;PMS_P2;Temp;Humidity;BMP_temperature;BMP_pressure;BME280_temperature;BME280_humidity;BME280_pressure;Samples;Min_cycle;Max_cycle;Signal;HPM_P1;HPM_P2
2022/07/23 00:00:58;;;;;;;7.32;2.20;;;;;;;51.28;10.03;100190.31;5047225;28;20032;-70
2022/07/23 00:03:24;;;;;;;6.50;2.10;;;;;;;53.37;8.20;100200.06;5049299;28;20051;-69
2022/07/23 00:05:51;;;;;;;6.32;2.05;;;;;;;54.41;7.24;100192.50;5053900;28;20033;-69
2022/07/23 00:08:18;;;;;;;11.52;2.22;;;;;;;54.20;7.77;100189.81;5054996;28;20021;-69
2022/07/23 00:10:45;;;;;;;10.02;1.85;;;;;;;52.22;9.49;100190.03;5038917;28;20111;-69
2022/07/23 00:13:11;;;;;;;10.05;1.80;;;;;;;53.95;8.34;100180.13;5047660;28;20108;-68
2022/07/23 00:15:38;;;;;;;8.68;1.70;;;;;;;53.35;8.38;100176.63;5045857;28;20037;-68
2022/07/23 00:18:05;;;;;;;8.93;1.90;;;;;;;53.87;8.59;100179.34;5040345;28;20128;-69
2022/07/23 00:20:32;;;;;;;16.95;2.15;;;;;;;52.52;8.89;100177.06;5053051;28;20082;-69
2022/07/23 00:22:58;;;;;;;9.93;1.90;;;;;;;52.67;9.23;100170.56;5049212;28;20039;-69
2022/07/23 00:25:27;;;;;;;121.53;5.25;;;;;;;51.84;9.29;100177.34;5046867;28;20056;-69
2022/07/23 00:27:53;;;;;;;11.57;2.38;;;;;;;50.61;10.48;100168.63;5055014;28;20468;-69
2022/07/23 00:30:20;;;;;;;9.30;2.38;;;;;;;50.77;9.46;100158.84;5054270;28;20037;-69
2022/07/23 00:32:48;;;;;;;6.50;2.00;;;;;;;50.97;9.44;100177.59;5037684;28;20025;-68
2022/07/23 00:35:16;;;;;;;7.38;1.88;;;;;;;49.21;11.23;100174.81;5054035;28;20510;-69
2022/07/23 00:37:42;;;;;;;8.32;1.65;;;;;;;51.30;9.97;100164.47;5050245;28;20036;-69
2022/07/23 00:40:11;;;;;;;6.22;1.60;;;;;;;50.70;9.72;100165.31;5054080;28;20037;-69
2022/07/23 00:42:38;;;;;;;13.18;2.05;;;;;;;50.14;10.18;100166.44;5053275;28;20041;-68
2022/07/23 00:45:06;;;;;;;10.65;2.00;;;;;;;49.17;11.61;100162.78;5053847;28;20029;-68
2022/07/23 00:47:33;;;;;;;11.55;1.92;;;;;;;48.60;11.56;100170.63;5051014;28;20029;-69
2022/07/23 00:50:00;;;;;;;8.73;2.10;;;;;;;48.95;11.47;100168.88;5041771;28;20139;-70
2022/07/23 00:52:27;;;;;;;10.13;2.13;;;;;;;48.44;12.17;100160.84;5036063;28;20437;-70
2022/07/23 00:54:53;;;;;;;13.25;2.53;;;;;;;48.92;11.76;100158.41;5039496;28;20029;-70
2022/07/23 00:57:20;;;;;;;13.88;2.38;;;;;;;48.48;11.88;100159.75;5051414;28;20025;-70
2022/07/23 00:59:47;;;;;;;14.02;2.13;;;;;;;48.82;12.15;100160.13;5052051;28;20044;-71
2022/07/23 01:02:14;;;;;;;12.52;2.05;;;;;;;48.09;12.65;100137.91;5036887;28;20103;-71
2022/07/23 01:04:41;;;;;;;22.83;2.60;;;;;;;48.21;12.71;100153.75;5052259;28;20025;-71
2022/07/23 01:07:07;;;;;;;25.27;2.47;;;;;;;47.64;13.39;100157.72;5050339;28;20032;-70
2022/07/23 01:09:34;;;;;;;13.35;2.20;;;;;;;47.53;13.42;100159.38;5041410;28;20033;-70
2022/07/23 01:12:01;;;;;;;16.52;2.22;;;;;;;46.64;14.26;100148.38;5035943;28;20025;-71
2022/07/23 01:14:28;;;;;;;15.43;2.08;;;;;;;46.99;14.08;100156.31;5050081;28;20743;-69
2022/07/23 01:16:55;;;;;;;16.30;2.13;;;;;;;47.63;13.17;100145.44;5042507;28;20029;-69
2022/07/23 01:19:22;;;;;;;15.93;2.20;;;;;;;46.62;13.46;100151.00;5045406;28;20056;-69
2022/07/23 01:21:50;;;;;;;21.33;2.38;;;;;;;46.35;14.34;100153.44;5050236;28;20029;-69
2022/07/23 01:24:19;;;;;;;10.00;2.20;;;;;;;46.28;13.99;100148.22;5052267;28;20103;-70
2022/07/23 01:27:06;;;;;;;15.25;2.30;;;;;;;46.92;13.72;100146.19;5050959;28;20029;-69
2022/07/23 01:29:35;;;;;;;13.65;2.03;;;;;;;46.54;14.23;100155.75;5050874;28;20033;-70
2022/07/23 01:32:07;;;;;;;8.25;1.77;;;;;;;46.33;13.75;100153.19;5050662;28;20136;-70
2022/07/23 01:34:34;;;;;;;9.38;1.98;;;;;;;45.84;14.52;100154.06;5045031;28;20040;-70
2022/07/23 01:37:00;;;;;;;16.70;2.55;;;;;;;46.06;14.84;100156.94;5041854;28;20144;-70
2022/07/23 01:39:28;;;;;;;11.00;1.98;;;;;;;45.44;15.17;100153.28;5052198;28;20049;-69
2022/07/23 01:41:54;;;;;;;13.45;1.95;;;;;;;45.74;14.98;100154.31;5051401;28;20083;-70
2022/07/23 01:44:22;;;;;;;16.65;2.05;;;;;;;45.65;15.36;100151.75;5051674;28;20433;-70
2022/07/23 01:46:49;;;;;;;14.10;2.20;;;;;;;45.02;15.40;100157.88;5050497;28;20033;-70
2022/07/23 01:49:18;;;;;;;11.23;2.00;;;;;;;44.28;16.16;100161.72;5051676;28;20120;-69
2022/07/23 01:51:59;;;;;;;10.00;2.15;;;;;;;44.06;16.62;100161.56;5051482;28;20029;-69
2022/07/23 01:54:32;;;;;;;17.85;2.20;;;;;;;43.75;16.91;100168.09;5051529;28;20101;-69
2022/07/23 01:57:00;;;;;;;20.05;2.60;;;;;;;43.62;16.99;100171.34;5051781;28;20074;-69
2022/07/23 01:59:28;;;;;;;17.85;2.92;;;;;;;43.62;16.98;100161.97;5048655;28;20021;-69
2022/07/23 02:01:55;;;;;;;11.00;2.20;;;;;;;43.42;17.52;100168.56;5039360;28;20075;-70
2022/07/23 02:04:24;;;;;;;13.27;2.50;;;;;;;43.13;17.54;100161.78;5041892;28;20025;-70
2022/07/23 02:06:53;;;;;;;9.18;1.75;;;;;;;43.13;17.82;100169.56;5051510;28;20029;-69
2022/07/23 02:09:21;;;;;;;16.15;2.22;;;;;;;43.01;17.57;100162.94;5050039;28;20036;-69
2022/07/23 02:11:47;;;;;;;13.85;2.00;;;;;;;43.08;17.54;100178.84;5050457;28;20032;-70
2022/07/23 02:14:14;;;;;;;16.75;2.22;;;;;;;42.77;18.04;100186.03;5036737;28;20523;-69
2022/07/23 02:16:41;;;;;;;9.15;1.98;;;;;;;42.54;17.99;100184.16;5050749;28;20033;-70
2022/07/23 02:19:08;;;;;;;18.77;2.65;;;;;;;42.52;18.41;100190.38;5052493;28;20037;-70
2022/07/23 02:21:37;;;;;;;12.52;2.15;;;;;;;42.47;18.00;100185.34;5049973;28;20032;-71
2022/07/23 02:24:05;;;;;;;10.43;2.08;;;;;;;42.39;18.40;100197.72;5052036;28;20033;-70
2022/07/23 02:26:35;;;;;;;15.88;1.90;;;;;;;42.18;18.79;100194.00;5049672;28;20036;-71
2022/07/23 02:29:05;;;;;;;10.07;1.87;;;;;;;42.03;19.09;100196.09;5043891;28;20461;-69
2022/07/23 02:31:32;;;;;;;15.50;1.85;;;;;;;41.83;19.15;100200.44;5052660;28;20025;-70
2022/07/23 02:34:00;;;;;;;12.10;1.60;;;;;;;41.66;19.70;100207.19;5049636;28;20021;-69
2022/07/23 02:36:27;;;;;;;12.27;1.98;;;;;;;41.51;19.91;100210.78;5068018;28;20479;-69
2022/07/23 02:38:54;;;;;;;19.23;2.60;;;;;;;41.27;20.39;100210.06;5048336;28;20018;-70
2022/07/23 02:41:21;;;;;;;17.08;2.55;;;;;;;41.10;20.67;100215.41;5050656;28;20484;-70
2022/07/23 02:43:48;;;;;;;16.58;2.45;;;;;;;41.09;20.44;100213.03;5049558;28;20162;-69
2022/07/23 02:46:15;;;;;;;16.52;2.17;;;;;;;40.89;20.86;100213.69;5049513;28;20041;-69
2022/07/23 02:48:43;;;;;;;17.92;2.58;;;;;;;40.68;21.15;100222.03;5049960;28;20387;-69
2022/07/23 02:51:10;;;;;;;12.32;2.53;;;;;;;40.54;21.31;100214.22;5050828;28;20083;-69
2022/07/23 02:53:42;;;;;;;12.05;1.90;;;;;;;40.43;21.78;100226.16;5048331;28;20032;-69
2022/07/23 02:56:10;;;;;;;15.43;2.20;;;;;;;40.29;21.50;100226.84;5050724;28;20029;-69
2022/07/23 02:58:37;;;;;;;23.00;2.58;;;;;;;40.13;21.39;100224.38;5035337;28;20021;-70
2022/07/23 03:01:05;;;;;;;13.68;2.53;;;;;;;40.03;21.35;100225.66;5050846;28;20036;-70
2022/07/23 03:03:32;;;;;;;18.55;2.47;;;;;;;40.01;21.80;100216.81;5049425;28;20083;-71
2022/07/23 03:06:00;;;;;;;9.27;1.98;;;;;;;39.92;22.00;100236.75;5051071;28;20060;-70
2022/07/23 03:08:28;;;;;;;13.05;2.20;;;;;;;39.92;21.99;100222.53;5047926;28;20033;-69
2022/07/23 03:10:56;;;;;;;12.85;1.80;;;;;;;39.68;22.34;100228.94;5035769;28;20029;-70
2022/07/23 03:13:23;;;;;;;15.25;1.80;;;;;;;39.70;21.97;100243.47;5056588;28;20467;-69
2022/07/23 03:15:52;;;;;;;16.20;2.10;;;;;;;39.64;22.05;100244.56;5049250;28;20539;-69
2022/07/23 03:18:18;;;;;;;19.42;2.45;;;;;;;39.42;22.40;100245.53;5050153;28;20541;-69
2022/07/23 03:20:45;;;;;;;11.02;2.08;;;;;;;39.35;22.34;100245.06;5032557;28;20029;-70
2022/07/23 03:23:12;;;;;;;10.55;2.10;;;;;;;39.15;22.82;100249.19;5036110;28;20028;-69
2022/07/23 03:25:40;;;;;;;15.18;2.25;;;;;;;39.07;23.53;100252.75;5044676;28;20091;-69
2022/07/23 03:28:06;;;;;;;19.25;2.10;;;;;;;38.95;22.63;100246.75;5042611;28;20028;-70
2022/07/23 03:30:33;;;;;;;14.90;2.00;;;;;;;39.04;23.51;100259.41;5054000;28;20029;-70
2022/07/23 03:33:00;;;;;;;11.57;1.90;;;;;;;38.86;23.12;100257.31;5052221;28;20021;-69
2022/07/23 03:35:27;;;;;;;17.20;2.05;;;;;;;38.65;24.10;100259.03;5053748;28;20558;-69
2022/07/23 03:38:17;;;;;;;19.17;2.42;;;;;;;38.62;24.06;100259.94;5045376;28;20037;-69
2022/07/23 03:40:44;;;;;;;24.33;2.60;;;;;;;38.75;23.58;100262.66;5050459;28;20037;-72
2022/07/23 03:43:10;;;;;;;21.92;3.05;;;;;;;38.77;23.63;100271.50;5049375;28;20479;-69
2022/07/23 03:45:37;;;;;;;21.05;2.70;;;;;;;38.56;23.36;100271.09;5054949;28;20530;-71
2022/07/23 03:48:04;;;;;;;27.67;3.10;;;;;;;38.51;23.44;100274.56;5053528;28;20422;-71
2022/07/23 03:50:31;;;;;;;17.83;2.60;;;;;;;38.27;23.38;100276.38;5053363;28;20037;-70
2022/07/23 03:52:58;;;;;;;26.23;3.08;;;;;;;38.02;24.35;100283.78;5033564;28;20035;-70
2022/07/23 03:55:24;;;;;;;30.10;3.25;;;;;;;38.03;24.66;100302.38;5042943;28;20033;-70
2022/07/23 03:57:51;;;;;;;22.02;2.60;;;;;;;37.94;24.50;100296.66;5053304;28;20488;-69
2022/07/23 04:00:19;;;;;;;18.23;2.72;;;;;;;37.94;24.44;100304.41;5053333;28;20033;-69
2022/07/23 04:02:49;;;;;;;32.38;3.00;;;;;;;37.73;25.33;100300.31;5053387;28;20029;-68
2022/07/23 04:05:17;;;;;;;38.35;9.18;;;;;;;37.65;24.83;100304.63;5034171;28;20036;-68
2022/07/23 04:07:47;;;;;;;26.70;4.25;;;;;;;37.73;25.05;100314.50;5053375;28;20037;-69
2022/07/23 04:10:14;;;;;;;22.08;3.65;;;;;;;37.63;24.75;100307.13;5036302;28;20029;-69
2022/07/23 04:12:42;;;;;;;22.10;3.10;;;;;;;37.67;24.91;100316.31;5050734;28;20027;-69
2022/07/23 04:15:10;;;;;;;15.13;2.58;;;;;;;37.69;24.43;100319.47;5053220;28;20029;-69
2022/07/23 04:17:37;;;;;;;23.75;3.17;;;;;;;37.63;24.78;100322.09;5036527;28;20028;-69
2022/07/23 04:20:04;;;;;;;20.98;2.80;;;;;;;37.74;24.68;100322.56;5053661;28;20052;-68
2022/07/23 04:22:36;;;;;;;13.70;2.53;;;;;;;37.48;24.70;100318.19;5035206;28;20033;-68
2022/07/23 04:25:04;;;;;;;20.58;3.15;;;;;;;37.63;24.36;100336.28;5034848;28;20098;-68
2022/07/23 04:27:33;;;;;;;26.95;3.33;;;;;;;37.53;24.73;100342.38;5051249;28;20025;-69
2022/07/23 04:30:00;;;;;;;18.70;3.33;;;;;;;37.41;24.81;100341.94;5033417;28;20094;-68
2022/07/23 04:32:26;;;;;;;16.08;3.17;;;;;;;37.37;24.90;100329.94;5052766;28;20036;-67
2022/07/23 04:34:53;;;;;;;14.82;2.83;;;;;;;37.09;25.61;100339.38;5052261;28;20036;-69
2022/07/23 04:37:20;;;;;;;19.33;3.13;;;;;;;36.95;25.07;100351.97;5046498;28;20037;-69
2022/07/23 04:39:47;;;;;;;16.98;3.22;;;;;;;36.91;25.67;100357.78;5052360;28;20064;-68
2022/07/23 04:42:13;;;;;;;20.63;3.33;;;;;;;36.75;25.57;100357.88;5050500;28;20064;-68
2022/07/23 04:44:41;;;;;;;15.85;3.30;;;;;;;36.62;26.28;100376.88;5052529;28;20029;-68
2022/07/23 04:47:10;;;;;;;22.55;3.72;;;;;;;36.64;26.20;100384.97;5036192;28;20025;-69
2022/07/23 04:49:37;;;;;;;45.35;5.20;;;;;;;36.55;26.65;100382.78;5052766;28;20175;-69
2022/07/23 04:52:05;;;;;;;28.55;4.22;;;;;;;36.42;26.56;100379.13;5052754;28;20025;-69
2022/07/23 04:54:32;;;;;;;39.53;4.63;;;;;;;36.48;26.19;100383.00;5052284;28;20124;-69
2022/07/23 04:56:58;;;;;;;17.70;3.08;;;;;;;36.62;26.17;100388.22;5052476;28;20143;-68
2022/07/23 04:59:25;;;;;;;17.50;3.00;;;;;;;36.65;25.62;100387.34;5049217;28;20037;-68
2022/07/23 05:02:05;;;;;;;19.92;3.55;;;;;;;36.62;25.68;100383.34;5052661;28;20076;-71
2022/07/23 05:04:35;;;;;;;22.85;3.97;;;;;;;36.74;25.57;100390.25;5052193;28;20029;-68
2022/07/23 05:07:03;;;;;;;22.13;4.00;;;;;;;36.64;25.14;100390.63;5052436;28;20020;-70
2022/07/23 05:09:30;;;;;;;22.05;3.80;;;;;;;36.64;25.52;100390.63;5035737;28;20029;-68
2022/07/23 05:11:57;;;;;;;17.30;3.38;;;;;;;36.36;26.50;100400.75;5052216;28;20360;-68
2022/07/23 05:14:24;;;;;;;37.05;4.18;;;;;;;36.27;26.92;100405.03;5031969;28;20132;-68
2022/07/23 05:16:52;;;;;;;26.65;3.90;;;;;;;36.11;27.34;100405.09;5034041;28;20025;-69
2022/07/23 05:19:22;;;;;;;21.55;3.63;;;;;;;36.20;27.16;100407.25;5035973;28;20029;-69
2022/07/23 05:21:49;;;;;;;18.10;4.07;;;;;;;36.24;27.93;100414.38;5051715;28;20060;-70
2022/07/23 05:24:16;;;;;;;25.38;4.07;;;;;;;36.26;27.23;100414.72;5051853;28;20028;-70
2022/07/23 05:26:43;;;;;;;12.52;3.17;;;;;;;36.10;27.57;100411.19;5067087;28;20532;-69
2022/07/23 05:29:10;;;;;;;18.00;3.40;;;;;;;35.96;27.97;100421.66;5051799;28;20017;-70
2022/07/23 05:31:38;;;;;;;16.50;3.38;;;;;;;35.79;28.31;100430.63;5051653;28;20068;-69
2022/07/23 05:34:06;;;;;;;14.45;3.05;;;;;;;35.84;28.54;100428.06;5051232;28;20029;-69
2022/07/23 05:36:34;;;;;;;12.63;2.75;;;;;;;35.70;28.83;100432.03;5050446;28;20056;-69
2022/07/23 05:39:03;;;;;;;11.80;3.10;;;;;;;35.57;29.92;100427.56;5039005;28;20036;-69
2022/07/23 05:41:33;;;;;;;12.85;2.30;;;;;;;35.50;29.43;100431.34;5045623;28;20049;-68
2022/07/23 05:44:02;;;;;;;18.27;2.78;;;;;;;35.41;30.08;100429.16;5045650;28;20071;-69
2022/07/23 05:46:30;;;;;;;11.60;2.92;;;;;;;35.35;30.60;100432.94;5051275;28;20464;-68
2022/07/23 05:49:02;;;;;;;19.23;3.67;;;;;;;35.30;30.77;100430.63;5036033;28;20033;-69
2022/07/23 05:52:09;;;;;;;19.17;3.53;;;;;;;35.10;32.51;100422.22;5041078;28;20041;-69
2022/07/23 05:54:58;;;;;;;18.48;3.10;;;;;;;35.32;31.34;100426.13;5044231;28;20040;-69
2022/07/23 05:57:25;;;;;;;19.55;4.32;;;;;;;35.19;32.80;100436.56;5060682;28;20388;-68
2022/07/23 05:59:52;;;;;;;15.98;3.70;;;;;;;35.10;31.39;100428.69;5051458;28;20028;-69
2022/07/23 06:02:19;;;;;;;12.85;3.20;;;;;;;35.01;32.44;100431.34;5033789;28;20155;-69
2022/07/23 06:04:47;;;;;;;12.15;2.58;;;;;;;34.99;31.70;100441.47;5045422;28;20100;-69
2022/07/23 06:07:23;;;;;;;23.70;3.30;;;;;;;34.81;33.09;100433.38;5028812;28;20061;-68
2022/07/23 06:09:50;;;;;;;11.32;3.10;;;;;;;34.66;33.59;100432.13;5043825;28;20032;-68
2022/07/23 06:12:17;;;;;;;14.70;3.63;;;;;;;34.63;33.67;100432.97;5027304;28;20112;-68
2022/07/23 06:14:44;;;;;;;12.75;3.70;;;;;;;34.65;33.80;100436.97;5029841;28;20044;-68
2022/07/23 06:17:11;;;;;;;19.48;3.42;;;;;;;34.53;33.83;100435.59;5051662;28;20035;-68
2022/07/23 06:19:37;;;;;;;13.50;3.22;;;;;;;34.52;33.81;100428.38;5031868;28;20286;-69
2022/07/23 06:22:04;;;;;;;13.18;3.13;;;;;;;34.62;33.41;100426.53;5023223;28;20079;-69
2022/07/23 06:24:31;;;;;;;13.80;3.50;;;;;;;34.66;32.79;100426.47;5041453;28;20033;-68
2022/07/23 06:26:58;;;;;;;16.50;4.55;;;;;;;34.72;33.13;100424.72;5044358;28;20021;-69
2022/07/23 06:29:25;;;;;;;20.88;4.90;;;;;;;34.54;33.80;100428.72;5041502;28;20186;-68
2022/07/23 06:31:51;;;;;;;24.38;5.10;;;;;;;34.39;33.94;100423.81;5039399;28;20018;-69
2022/07/23 06:34:20;;;;;;;18.08;3.97;;;;;;;34.41;33.95;100416.50;5049245;28;20063;-69
2022/07/23 06:36:47;;;;;;;10.13;2.97;;;;;;;34.49;33.80;100426.41;5048439;28;20057;-69
2022/07/23 06:39:14;;;;;;;13.68;3.20;;;;;;;34.63;33.68;100430.13;5023274;28;20065;-69
2022/07/23 06:41:44;;;;;;;20.90;3.38;;;;;;;34.57;33.37;100414.97;5043307;28;20089;-69
2022/07/23 06:44:11;;;;;;;11.02;3.13;;;;;;;34.50;32.78;100419.53;5042855;28;20028;-69
2022/07/23 06:46:41;;;;;;;16.88;3.25;;;;;;;34.37;33.06;100407.31;5034580;28;20063;-69
2022/07/23 06:49:07;;;;;;;18.67;4.13;;;;;;;34.19;34.33;100415.31;5050689;28;20033;-69
2022/07/23 06:51:35;;;;;;;17.23;3.83;;;;;;;34.09;34.42;100405.03;5050398;28;20074;-69
2022/07/23 06:54:03;;;;;;;19.27;3.78;;;;;;;34.11;34.21;100405.41;5050938;28;20025;-69
2022/07/23 06:56:29;;;;;;;13.55;3.35;;;;;;;34.30;33.95;100410.28;5050742;28;20083;-69
2022/07/23 06:58:56;;;;;;;10.63;3.05;;;;;;;34.35;33.89;100400.50;5050532;28;20029;-69
2022/07/23 07:01:23;;;;;;;10.02;2.80;;;;;;;34.24;33.45;100397.88;5054772;28;20060;-69
2022/07/23 07:03:51;;;;;;;14.55;3.10;;;;;;;34.18;33.61;100400.44;5040422;28;20076;-69
2022/07/23 07:06:17;;;;;;;12.63;3.05;;;;;;;34.04;33.90;100399.91;5058401;28;20029;-69
2022/07/23 07:08:44;;;;;;;20.33;3.25;;;;;;;33.96;34.60;100399.28;5055966;28;20036;-69
2022/07/23 07:11:11;;;;;;;20.25;3.58;;;;;;;33.85;34.95;100390.22;5057299;28;20036;-69
2022/07/23 07:13:38;;;;;;;23.92;4.03;;;;;;;33.85;34.94;100401.50;5057086;28;20048;-69
2022/07/23 07:16:05;;;;;;;19.95;3.50;;;;;;;33.83;34.93;100396.25;5056242;28;20052;-69
2022/07/23 07:18:32;;;;;;;11.43;3.42;;;;;;;33.76;35.03;100393.59;5056944;28;20029;-68
2022/07/23 07:20:59;;;;;;;20.88;3.60;;;;;;;33.82;34.58;100391.84;5055905;28;20175;-68
2022/07/23 07:23:26;;;;;;;13.40;3.25;;;;;;;33.70;34.75;100398.13;5047943;28;20052;-68
2022/07/23 07:25:53;;;;;;;16.75;3.35;;;;;;;33.73;34.62;100385.97;5051534;28;20111;-68
2022/07/23 07:28:20;;;;;;;11.52;3.38;;;;;;;33.75;35.24;100391.19;5040610;28;20505;-69
2022/07/23 07:30:46;;;;;;;11.65;3.28;;;;;;;33.63;35.22;100384.16;5036752;28;20104;-69
2022/07/23 07:33:13;;;;;;;10.07;2.95;;;;;;;33.53;35.60;100379.50;5046244;28;20041;-69
2022/07/23 07:35:40;;;;;;;20.77;3.45;;;;;;;33.46;35.88;100383.25;5057066;28;20036;-69
2022/07/23 07:38:06;;;;;;;16.27;3.50;;;;;;;33.37;36.01;100376.56;5058541;28;20029;-68
2022/07/23 07:40:33;;;;;;;13.50;3.03;;;;;;;33.35;35.67;100374.97;5040494;28;20045;-69
2022/07/23 07:43:01;;;;;;;17.33;3.75;;;;;;;33.39;36.27;100379.75;5052658;28;20588;-68
2022/07/23 07:45:28;;;;;;;10.60;3.30;;;;;;;33.48;35.53;100377.19;5047064;28;20071;-68
2022/07/23 07:47:55;;;;;;;11.23;4.03;;;;;;;33.73;35.46;100376.72;5044797;28;20088;-68
2022/07/23 07:50:22;;;;;;;12.48;4.75;;;;;;;33.57;35.59;100381.03;5053832;28;20071;-68
2022/07/23 07:52:48;;;;;;;14.80;4.65;;;;;;;33.42;35.80;100385.34;5042914;28;20040;-68
2022/07/23 07:55:17;;;;;;;20.55;4.47;;;;;;;33.30;36.16;100391.56;5050125;28;20052;-68
2022/07/23 07:57:44;;;;;;;11.77;3.65;;;;;;;33.27;36.76;100400.88;5050461;28;20422;-68
2022/07/23 08:00:11;;;;;;;13.43;3.80;;;;;;;33.23;36.33;100389.66;5041358;28;20402;-69
2022/07/23 08:02:49;;;;;;;22.23;3.75;;;;;;;33.30;36.01;100388.75;5053756;28;20034;-69
2022/07/23 08:05:18;;;;;;;;;;;;;;;33.23;35.82;100389.66;5055144;28;20029;-69
2022/07/23 08:07:45;;;;;;;12.10;4.07;;;;;;;33.05;36.75;100384.31;5058188;28;19958;-68
2022/07/23 08:10:12;;;;;;;21.50;4.43;;;;;;;33.06;37.04;100390.75;5039798;28;20039;-69
2022/07/23 08:12:47;;;;;;;11.32;4.03;;;;;;;33.07;37.02;100380.28;5051657;28;20021;-68
2022/07/23 08:15:17;;;;;;;17.33;4.20;;;;;;;33.10;37.72;100383.03;5043089;28;20780;-68
2022/07/23 08:17:46;;;;;;;13.02;4.15;;;;;;;33.14;37.27;100380.97;5042855;28;20029;-68
2022/07/23 08:20:14;;;;;;;16.60;3.75;;;;;;;33.01;36.87;100382.78;5051085;28;20095;-68
2022/07/23 08:22:48;;;;;;;11.18;3.97;;;;;;;33.02;37.27;100390.00;5038397;28;20505;-68
2022/07/23 08:25:17;;;;;;;11.65;3.38;;;;;;;33.04;37.44;100393.19;5046888;28;20030;-68
2022/07/23 08:27:43;;;;;;;15.02;3.97;;;;;;;32.96;37.35;100397.34;5045596;28;20071;-68
2022/07/23 08:30:11;;;;;;;9.88;3.50;;;;;;;32.84;38.20;100400.72;5039304;28;20029;-68
2022/07/23 08:32:50;;;;;;;10.73;3.78;;;;;;;32.79;38.23;100401.97;5051323;28;20541;-68
2022/07/23 08:35:18;;;;;;;13.38;4.18;;;;;;;32.72;38.28;100405.72;5050857;28;20037;-68
2022/07/23 08:37:45;;;;;;;20.70;4.85;;;;;;;32.62;38.57;100405.84;5054378;28;20032;-68
2022/07/23 08:40:13;;;;;;;189.18;14.38;;;;;;;32.62;42.03;100406.63;5042186;28;20033;-68
2022/07/23 08:42:40;;;;;;;31.77;6.70;;;;;;;32.57;41.27;100409.13;5049768;28;20030;-68
2022/07/23 08:45:09;;;;;;;46.80;7.50;;;;;;;32.54;42.03;100421.25;5041407;28;20025;-67
2022/07/23 08:47:38;;;;;;;37.53;6.28;;;;;;;32.56;41.48;100413.19;5043449;28;20369;-67
2022/07/23 08:50:07;;;;;;;24.10;5.60;;;;;;;32.50;40.21;100415.66;5048048;28;20072;-67
2022/07/23 08:52:34;;;;;;;16.67;4.80;;;;;;;32.50;41.35;100420.47;5038002;28;20026;-68
2022/07/23 08:55:01;;;;;;;19.45;5.13;;;;;;;32.46;41.65;100415.69;5051799;28;20032;-67
2022/07/23 08:57:28;;;;;;;18.00;5.18;;;;;;;32.41;41.47;100413.34;5052682;28;20112;-68
2022/07/23 08:59:55;;;;;;;19.23;5.50;;;;;;;32.52;40.57;100415.25;5052626;28;20033;-68
2022/07/23 09:02:21;;;;;;;21.73;5.35;;;;;;;32.44;41.48;100423.75;5051106;28;20075;-67
2022/07/23 09:04:48;;;;;;;15.60;4.00;;;;;;;32.40;42.42;100417.38;5053364;28;20032;-67
2022/07/23 09:07:15;;;;;;;12.93;4.35;;;;;;;32.42;40.68;100425.41;5052644;28;20025;-67
2022/07/23 09:09:42;;;;;;;13.10;4.50;;;;;;;32.36;41.03;100430.72;5054018;28;20372;-67
2022/07/23 09:12:10;;;;;;;17.98;3.88;;;;;;;32.38;41.34;100427.47;5053866;28;20025;-66
2022/07/23 09:14:48;;;;;;;11.00;3.20;;;;;;;32.31;41.57;100427.53;5037366;28;20122;-67
2022/07/23 09:17:17;;;;;;;12.85;2.70;;;;;;;32.23;42.18;100424.00;5053944;28;20051;-67
2022/07/23 09:19:45;;;;;;;10.20;2.67;;;;;;;32.28;41.23;100436.81;5040511;28;20391;-67
2022/07/23 09:22:22;;;;;;;13.43;3.63;;;;;;;32.29;41.51;100438.41;5049332;28;20542;-66
2022/07/23 09:25:14;;;;;;;9.95;3.17;;;;;;;32.39;40.71;100443.13;5038187;28;20040;-67
2022/07/23 09:28:02;;;;;;;12.10;3.33;;;;;;;32.42;41.54;100447.91;5054039;28;20033;-67
2022/07/23 09:30:34;;;;;;;14.20;4.05;;;;;;;32.39;40.90;100443.13;5037218;28;20037;-67
2022/07/23 09:33:08;;;;;;;15.63;5.07;;;;;;;32.30;40.89;100440.81;5047632;28;20098;-67
2022/07/23 09:35:53;;;;;;;14.50;4.68;;;;;;;32.15;41.83;100440.19;5050305;28;20063;-67
2022/07/23 09:38:21;;;;;;;11.80;4.18;;;;;;;32.10;43.05;100440.59;5050338;28;20029;-67
2022/07/23 09:41:12;;;;;;;17.45;4.10;;;;;;;32.27;42.90;100435.22;5049071;28;20564;-68
2022/07/23 09:43:39;;;;;;;11.77;3.60;;;;;;;32.17;42.63;100434.94;5044651;28;20425;-69
2022/07/23 09:46:21;;;;;;;12.82;3.58;;;;;;;32.28;42.04;100442.44;5037186;28;20113;-68
2022/07/23 09:48:48;;;;;;;11.10;3.42;;;;;;;32.08;41.19;100445.84;5037717;28;20555;-69
2022/07/23 09:51:18;;;;;;;12.80;3.58;;;;;;;31.95;42.57;100444.78;5052083;28;20075;-68
2022/07/23 09:53:45;;;;;;;13.32;3.83;;;;;;;31.87;43.83;100446.09;5041281;28;20125;-68
2022/07/23 09:56:15;;;;;;;11.15;3.90;;;;;;;31.86;43.87;100467.78;5049143;28;20399;-68
2022/07/23 09:58:49;;;;;;;12.65;4.25;;;;;;;31.99;44.52;100458.81;5036706;28;20025;-67
2022/07/23 10:01:16;;;;;;;14.38;4.35;;;;;;;31.96;45.10;100454.84;5044774;28;20042;-67
2022/07/23 10:03:43;;;;;;;10.93;3.63;;;;;;;32.07;44.20;100435.81;5042559;28;20029;-67
2022/07/23 10:06:46;;;;;;;13.38;4.20;;;;;;;32.08;44.74;100445.06;5036964;28;20040;-68
2022/07/23 10:09:34;;;;;;;10.45;3.58;;;;;;;32.19;43.34;100444.94;5052825;28;20040;-67
2022/07/23 10:15:00;;;;;;;7.35;3.63;;;;;;;32.12;44.56;100463.47;5045793;28;20044;-67
2022/07/23 10:17:30;;;;;;;9.07;4.05;;;;;;;32.14;43.66;100463.88;5042594;28;20505;-67
2022/07/23 10:19:57;;;;;;;14.07;4.10;;;;;;;32.02;44.74;100470.03;5039039;28;20487;-68
2022/07/23 10:22:34;;;;;;;12.52;4.78;;;;;;;32.15;44.69;100481.56;5049348;28;20094;-67
2022/07/23 10:25:07;;;;;;;15.18;5.00;;;;;;;32.07;45.49;100494.88;5038897;28;20368;-68
2022/07/23 10:27:42;;;;;;;15.20;5.07;;;;;;;32.07;45.57;100502.50;5051282;28;20029;-68
2022/07/23 10:30:34;;;;;;;22.45;4.85;;;;;;;32.12;45.81;100479.56;5037341;28;20411;-69
2022/07/23 10:33:12;;;;;;;16.33;5.00;;;;;;;32.10;45.57;100473.56;5028482;28;20041;-69
2022/07/23 10:35:48;;;;;;;15.23;4.53;;;;;;;32.14;46.04;100477.94;5051129;28;20048;-70
2022/07/23 10:38:32;;;;;;;14.57;4.13;;;;;;;32.15;46.40;100485.16;5051491;28;20043;-70
2022/07/23 10:41:00;;;;;;;13.17;4.10;;;;;;;32.04;46.67;100480.84;5036992;28;20041;-69
2022/07/23 10:43:28;;;;;;;13.23;3.42;;;;;;;31.99;47.71;100468.06;5050894;28;20487;-69
2022/07/23 10:45:56;;;;;;;7.85;2.70;;;;;;;32.08;46.93;100468.34;5052347;28;20044;-69
2022/07/23 10:48:29;;;;;;;9.55;3.13;;;;;;;31.93;47.44;100466.09;5051630;28;20113;-70
2022/07/23 10:51:08;;;;;;;11.50;2.75;;;;;;;31.99;47.70;100479.31;5036546;28;20039;-70
2022/07/23 10:53:53;;;;;;;11.77;3.70;;;;;;;31.89;47.97;100488.63;5041616;28;20038;-69
2022/07/23 10:56:56;;;;;;;18.00;6.05;;;;;;;32.04;47.68;100478.84;5048984;28;20029;-69
2022/07/23 10:59:23;;;;;;;13.15;5.63;;;;;;;31.86;47.58;100479.03;5041423;28;20431;-69
2022/07/23 11:01:51;;;;;;;12.18;4.95;;;;;;;31.77;48.19;100464.63;5039391;28;20056;-70
2022/07/23 11:04:18;;;;;;;13.68;5.32;;;;;;;31.69;48.43;100462.28;5048628;28;20500;-68
2022/07/23 11:06:50;;;;;;;11.65;4.57;;;;;;;31.54;48.49;100461.63;5051046;28;20128;-69
2022/07/23 11:09:27;;;;;;;11.30;4.03;;;;;;;31.37;48.50;100452.13;5043995;28;20030;-69
2022/07/23 11:12:21;;;;;;;7.22;3.83;;;;;;;31.35;48.74;100460.16;5045418;28;20029;-69
2022/07/23 11:15:09;;;;;;;8.30;3.88;;;;;;;31.29;48.81;100467.44;5051962;28;20037;-69
2022/07/23 11:17:50;;;;;;;12.23;3.88;;;;;;;31.35;48.48;100465.78;5052080;28;20033;-68
2022/07/23 11:20:22;;;;;;;14.07;3.67;;;;;;;31.38;47.54;100464.94;5035563;28;20458;-66
2022/07/23 11:22:49;;;;;;;18.75;3.95;;;;;;;31.41;48.13;100474.56;5047652;28;20036;-68
2022/07/23 11:25:22;;;;;;;10.95;3.63;;;;;;;31.38;47.66;100473.38;5040374;28;20036;-68
2022/07/23 11:27:50;;;;;;;12.75;4.10;;;;;;;31.31;48.39;100465.00;5039214;28;20029;-68
2022/07/23 11:30:26;;;;;;;12.50;3.88;;;;;;;31.38;49.18;100476.19;5048635;28;20400;-69
2022/07/23 11:33:08;;;;;;;14.32;4.00;;;;;;;31.40;48.76;100472.97;5037152;28;20029;-68